createdAt,value
2023-02-28T00:01:18.848Z,61.51
2023-02-28T00:03:45.485Z,61.70
2023-02-28T00:06:12.085Z,60.92
2023-02-28T00:08:40.122Z,61.68
2023-02-28T00:11:09.334Z,61.41
2023-02-28T00:13:38.520Z,61.55
2023-02-28T00:16:11.364Z,60.64
2023-02-28T00:18:38.978Z,60.91
2023-02-28T00:21:06.584Z,61.89
2023-02-28T00:23:33.632Z,61.54
2023-02-28T00:26:00.189Z,61.72
2023-02-28T00:28:26.799Z,61.78
2023-02-28T00:30:53.567Z,61.63
2023-02-28T00:33:20.204Z,61.63
2023-02-28T00:35:47.494Z,62.14
2023-02-28T00:38:14.998Z,62.35
2023-02-28T00:40:41.581Z,62.27
2023-02-28T00:43:08.186Z,61.82
2023-02-28T00:45:34.873Z,61.94
2023-02-28T00:48:01.469Z,61.29
2023-02-28T00:50:28.315Z,62.15
2023-02-28T00:52:54.835Z,62.27
2023-02-28T00:55:21.424Z,62.01
2023-02-28T00:57:47.962Z,61.88
2023-02-28T01:00:14.937Z,61.84
2023-02-28T01:02:41.466Z,62.58
2023-02-28T01:05:11.361Z,62.02
2023-02-28T01:07:38.050Z,62.19
2023-02-28T01:10:05.107Z,62.36
2023-02-28T01:12:31.637Z,62.28
2023-02-28T01:14:58.293Z,61.59
2023-02-28T01:17:24.892Z,62.37
2023-02-28T01:19:55.300Z,62.26
2023-02-28T01:22:22.106Z,61.75
2023-02-28T01:24:49.058Z,62.20
2023-02-28T01:27:15.548Z,61.69
2023-02-28T01:29:43.188Z,61.74
2023-02-28T01:32:09.757Z,61.91
2023-02-28T01:34:36.315Z,61.61
2023-02-28T01:37:04.461Z,62.05
2023-02-28T01:39:31.503Z,62.38
2023-02-28T01:41:58.071Z,62.41
2023-02-28T01:44:55.412Z,61.83
2023-02-28T01:47:23.659Z,62.23
2023-02-28T01:49:52.570Z,62.31
2023-02-28T01:52:22.168Z,62.09
2023-02-28T01:54:55.661Z,62.34
2023-02-28T01:57:30.117Z,63.24
2023-02-28T02:00:05.269Z,63.21
2023-02-28T02:02:32.345Z,62.94
2023-02-28T02:05:04.416Z,62.71
2023-02-28T02:07:34.549Z,63.60
2023-02-28T02:10:04.210Z,63.02
2023-02-28T02:12:49.594Z,62.94
2023-02-28T02:15:29.463Z,62.77
2023-02-28T02:18:02.603Z,63.07
2023-02-28T02:21:03.197Z,63.19
2023-02-28T02:23:29.684Z,62.41
2023-02-28T02:26:11.264Z,62.45
2023-02-28T02:29:05.710Z,62.21
2023-02-28T02:32:01.511Z,62.51
2023-02-28T02:34:40.655Z,62.85
2023-02-28T02:37:49.150Z,62.23
2023-02-28T02:40:18.154Z,63.05
2023-02-28T02:43:02.153Z,62.99
2023-02-28T02:45:38.437Z,62.07
2023-02-28T02:48:10.131Z,62.20
2023-02-28T02:50:41.572Z,61.85
2023-02-28T02:53:11.525Z,61.96
2023-02-28T02:55:42.566Z,61.42
2023-02-28T02:58:15.263Z,61.86
2023-02-28T03:00:49.025Z,62.56
2023-02-28T03:03:18.883Z,63.84
2023-02-28T03:05:51.317Z,64.39
2023-02-28T03:08:18.462Z,64.94
2023-02-28T03:10:49.405Z,64.21
2023-02-28T03:13:34.447Z,64.48
2023-02-28T03:16:12.723Z,63.84
2023-02-28T03:18:39.237Z,62.28
2023-02-28T03:21:29.447Z,63.63
2023-02-28T03:24:11.078Z,63.07
2023-02-28T03:26:43.823Z,63.69
2023-02-28T03:29:19.219Z,62.56
2023-02-28T03:31:59.475Z,63.51
2023-02-28T03:34:39.611Z,63.44
2023-02-28T03:37:13.124Z,64.42
2023-02-28T03:39:46.893Z,64.24
2023-02-28T03:42:23.424Z,64.23
2023-02-28T03:45:03.412Z,63.67
2023-02-28T03:47:38.488Z,63.89
2023-02-28T03:50:05.226Z,62.44
2023-02-28T03:52:36.363Z,63.16
2023-02-28T03:55:12.168Z,62.91
2023-02-28T03:57:57.841Z,62.52
2023-02-28T04:00:33.866Z,62.33
2023-02-28T04:03:00.483Z,60.93
2023-02-28T04:05:28.684Z,59.70
2023-02-28T04:08:04.118Z,59.33
2023-02-28T04:10:30.680Z,58.97
2023-02-28T04:12:57.190Z,58.53
2023-02-28T04:15:25.712Z,58.88
2023-02-28T04:17:52.207Z,58.45
2023-02-28T04:20:18.715Z,59.38
2023-02-28T04:22:45.297Z,61.70
2023-02-28T04:25:11.838Z,61.14
2023-02-28T04:27:38.334Z,60.17
2023-02-28T04:30:05.362Z,59.38
2023-02-28T04:32:35.080Z,58.43
2023-02-28T04:35:01.598Z,58.96
2023-02-28T04:37:31.749Z,59.84
2023-02-28T04:40:00.056Z,60.03
2023-02-28T04:42:26.598Z,59.07
2023-02-28T04:44:53.450Z,59.31
2023-02-28T04:47:20.021Z,61.26
2023-02-28T04:49:47.027Z,62.01
2023-02-28T04:52:14.328Z,61.64
2023-02-28T04:54:40.956Z,61.22
2023-02-28T04:57:07.489Z,60.72
2023-02-28T04:59:34.108Z,60.43
2023-02-28T05:02:00.743Z,60.08
2023-02-28T05:04:27.425Z,59.73
2023-02-28T05:06:54.046Z,59.42
2023-02-28T05:09:20.543Z,60.36
2023-02-28T05:11:47.209Z,59.99
2023-02-28T05:14:15.451Z,59.85
2023-02-28T05:16:42.557Z,59.59
2023-02-28T05:19:09.498Z,59.25
2023-02-28T05:21:39.759Z,59.65
2023-02-28T05:24:13.196Z,59.94
2023-02-28T05:26:42.914Z,59.70
2023-02-28T05:29:10.237Z,60.03
2023-02-28T05:31:37.525Z,60.13
2023-02-28T05:34:05.361Z,60.53
2023-02-28T05:36:32.445Z,61.14
2023-02-28T05:38:59.067Z,60.75
2023-02-28T05:41:27.306Z,61.52
2023-02-28T05:43:54.218Z,61.30
2023-02-28T05:46:20.822Z,61.50
2023-02-28T05:48:48.884Z,60.37
2023-02-28T05:51:15.945Z,61.32
2023-02-28T05:53:42.497Z,61.15
2023-02-28T05:56:09.077Z,61.80
2023-02-28T05:58:35.863Z,61.63
2023-02-28T06:01:21.844Z,61.77
2023-02-28T06:03:48.361Z,61.37
2023-02-28T06:06:14.849Z,62.12
2023-02-28T06:08:41.466Z,61.90
2023-02-28T06:11:08.557Z,62.08
2023-02-28T06:13:35.217Z,62.94
2023-02-28T06:16:02.536Z,62.03
2023-02-28T06:18:29.084Z,62.07
2023-02-28T06:20:56.415Z,62.81
2023-02-28T06:23:23.438Z,62.21
2023-02-28T06:25:50.713Z,63.16
2023-02-28T06:28:17.401Z,62.56
2023-02-28T06:30:46.363Z,63.11
2023-02-28T06:33:13.111Z,63.14
2023-02-28T06:35:39.659Z,63.26
2023-02-28T06:38:06.182Z,62.80
2023-02-28T06:40:36.797Z,61.85
2023-02-28T06:43:04.170Z,60.27
2023-02-28T06:45:30.778Z,61.00
2023-02-28T06:47:57.350Z,60.41
2023-02-28T06:50:23.901Z,61.59
2023-02-28T06:52:54.946Z,61.49
2023-02-28T06:55:24.541Z,62.22
2023-02-28T06:57:51.787Z,62.58
2023-02-28T07:00:18.701Z,62.96
2023-02-28T07:02:45.704Z,62.80
2023-02-28T07:05:12.278Z,62.64
2023-02-28T07:07:41.707Z,63.12
2023-02-28T07:10:08.734Z,61.21
2023-02-28T07:12:37.950Z,60.74
2023-02-28T07:15:08.020Z,60.54
2023-02-28T07:17:34.558Z,60.55
2023-02-28T07:20:01.067Z,60.52
2023-02-28T07:22:27.706Z,61.09
2023-02-28T07:24:54.201Z,60.47
2023-02-28T07:27:26.686Z,59.76
2023-02-28T07:29:54.241Z,60.40
2023-02-28T07:32:20.849Z,60.16
2023-02-28T07:34:47.545Z,60.14
2023-02-28T07:37:14.122Z,60.79
2023-02-28T07:39:43.231Z,60.85
2023-02-28T07:42:12.804Z,60.68
2023-02-28T07:44:43.604Z,61.01
2023-02-28T07:47:11.145Z,60.65
2023-02-28T07:49:37.891Z,60.61
2023-02-28T07:52:08.505Z,59.65
2023-02-28T07:54:35.417Z,59.30
2023-02-28T07:57:04.609Z,59.00
2023-02-28T07:59:32.334Z,59.43
2023-02-28T08:02:00.106Z,58.95
2023-02-28T08:04:27.686Z,59.31
2023-02-28T08:06:54.397Z,59.90
2023-02-28T08:09:21.141Z,58.97
2023-02-28T08:11:47.687Z,59.26
2023-02-28T08:14:14.755Z,58.74
2023-02-28T08:16:41.475Z,59.43
2023-02-28T08:19:07.991Z,57.81
2023-02-28T08:21:34.504Z,57.62
2023-02-28T08:24:01.088Z,58.44
2023-02-28T08:26:27.699Z,57.19
2023-02-28T08:28:56.112Z,57.68
2023-02-28T08:31:24.122Z,58.13
2023-02-28T08:33:52.894Z,58.08
2023-02-28T08:36:20.651Z,57.19
2023-02-28T08:38:47.264Z,57.22
2023-02-28T08:41:14.222Z,55.80
2023-02-28T08:43:41.968Z,56.34
2023-02-28T08:46:09.483Z,56.56
2023-02-28T08:48:38.909Z,55.72
2023-02-28T08:51:08.980Z,54.84
2023-02-28T08:53:37.139Z,55.14
2023-02-28T08:56:13.426Z,55.65
2023-02-28T08:58:42.280Z,54.31
2023-02-28T09:01:14.799Z,54.73
2023-02-28T09:03:42.712Z,54.52
2023-02-28T09:06:10.992Z,54.10
2023-02-28T09:08:37.700Z,53.57
2023-02-28T09:11:04.852Z,52.84
2023-02-28T09:13:33.253Z,52.03
2023-02-28T09:16:01.211Z,50.69
2023-02-28T09:18:28.531Z,49.66
2023-02-28T09:20:55.117Z,48.99
2023-02-28T09:23:21.990Z,49.00
2023-02-28T09:25:54.058Z,49.13
2023-02-28T09:28:21.932Z,47.05
2023-02-28T09:30:51.121Z,47.47
2023-02-28T09:33:21.633Z,47.25
2023-02-28T09:35:52.046Z,46.85
2023-02-28T09:38:19.140Z,47.05
2023-02-28T09:40:52.875Z,46.75
2023-02-28T09:43:23.242Z,47.12
2023-02-28T09:46:13.417Z,46.86
2023-02-28T09:48:47.743Z,46.09
2023-02-28T09:51:31.387Z,45.32
2023-02-28T09:54:01.986Z,45.19
2023-02-28T09:56:37.653Z,45.01
2023-02-28T09:59:18.920Z,44.46
2023-02-28T10:02:03.106Z,44.46
2023-02-28T10:04:52.707Z,44.37
2023-02-28T10:07:58.487Z,44.61
2023-02-28T10:10:33.922Z,43.49
2023-02-28T10:13:05.742Z,44.39
2023-02-28T10:15:35.598Z,43.42
2023-02-28T10:20:56.851Z,43.60
2023-02-28T10:23:36.001Z,43.12
2023-02-28T10:26:12.999Z,43.14
2023-02-28T10:28:40.563Z,42.54
2023-02-28T10:31:15.554Z,42.00
2023-02-28T10:33:42.182Z,42.22
2023-02-28T10:36:15.488Z,42.37
2023-02-28T10:38:45.024Z,42.14
2023-02-28T10:41:19.699Z,42.03
2023-02-28T10:43:46.519Z,41.89
2023-02-28T10:46:28.870Z,42.01
2023-02-28T10:49:06.428Z,41.38
2023-02-28T10:51:43.333Z,41.33
2023-02-28T10:54:19.119Z,41.82
2023-02-28T10:56:45.646Z,41.51
2023-02-28T10:59:30.517Z,41.22
2023-02-28T11:01:57.196Z,41.74
2023-02-28T11:04:23.731Z,41.46
2023-02-28T11:07:01.678Z,41.58
2023-02-28T11:09:31.969Z,41.28
2023-02-28T11:11:58.717Z,41.22
2023-02-28T11:14:31.005Z,41.62
2023-02-28T11:17:18.671Z,41.65
2023-02-28T11:19:51.018Z,41.24
2023-02-28T11:22:24.894Z,41.25
2023-02-28T11:24:55.795Z,40.78
2023-02-28T11:27:31.258Z,40.52
2023-02-28T11:29:59.360Z,39.76
2023-02-28T11:32:29.900Z,38.67
2023-02-28T11:35:04.858Z,38.73
2023-02-28T11:37:34.032Z,38.29
2023-02-28T11:40:00.577Z,39.00
2023-02-28T11:42:49.212Z,38.70
2023-02-28T11:45:16.198Z,38.74
2023-02-28T11:47:45.427Z,38.70
2023-02-28T11:50:39.997Z,38.31
2023-02-28T11:53:14.785Z,38.85
2023-02-28T11:55:56.098Z,38.55
2023-02-28T11:59:00.114Z,38.15
2023-02-28T12:01:34.039Z,38.61
2023-02-28T12:04:34.242Z,38.48
2023-02-28T12:07:18.340Z,38.20
2023-02-28T12:10:00.548Z,38.50
2023-02-28T12:12:35.523Z,39.29
2023-02-28T12:15:02.126Z,38.96
2023-02-28T12:17:37.601Z,39.66
2023-02-28T12:20:15.258Z,39.46
2023-02-28T12:22:53.741Z,39.74
2023-02-28T12:25:28.751Z,39.83
2023-02-28T12:27:55.323Z,39.31
2023-02-28T12:30:22.034Z,39.51
2023-02-28T12:32:58.395Z,39.34
2023-02-28T12:35:30.648Z,39.15
2023-02-28T12:38:04.919Z,39.47
2023-02-28T12:40:57.680Z,40.01
2023-02-28T12:43:31.986Z,39.55
2023-02-28T12:46:20.788Z,39.35
2023-02-28T12:48:53.573Z,39.44
2023-02-28T12:51:20.741Z,39.39
2023-02-28T12:54:16.745Z,39.97
2023-02-28T12:56:46.192Z,39.75
2023-02-28T12:59:33.822Z,39.74
2023-02-28T13:02:21.669Z,39.52
2023-02-28T13:05:23.994Z,39.64
2023-02-28T13:08:05.199Z,39.69
2023-02-28T13:10:44.411Z,39.25
2023-02-28T13:13:20.767Z,39.41
2023-02-28T13:16:13.746Z,39.74
2023-02-28T13:18:47.025Z,39.51
2023-02-28T13:21:31.307Z,40.13
2023-02-28T13:24:01.253Z,39.94
2023-02-28T13:26:36.606Z,39.86
2023-02-28T13:29:12.138Z,40.01
2023-02-28T13:32:20.679Z,39.78
2023-02-28T13:34:50.108Z,40.00
2023-02-28T13:37:22.746Z,40.11
2023-02-28T13:40:05.982Z,40.34
2023-02-28T13:42:32.571Z,40.35
2023-02-28T13:45:05.228Z,40.54
2023-02-28T13:47:38.035Z,40.33
2023-02-28T13:50:17.803Z,40.86
2023-02-28T13:53:03.526Z,40.56
2023-02-28T13:55:44.749Z,40.53
2023-02-28T13:58:22.131Z,40.65
2023-02-28T14:01:06.796Z,40.51
2023-02-28T14:03:41.160Z,40.69
2023-02-28T14:06:24.806Z,39.99
2023-02-28T14:09:08.413Z,40.36
2023-02-28T14:11:38.752Z,40.57
2023-02-28T14:14:07.459Z,40.26
2023-02-28T14:16:50.666Z,40.49
2023-02-28T14:19:32.432Z,40.13
2023-02-28T14:22:14.223Z,40.02
2023-02-28T14:25:05.395Z,40.04
2023-02-28T14:27:37.432Z,40.57
2023-02-28T14:30:12.745Z,40.46
2023-02-28T14:32:58.000Z,40.54
2023-02-28T14:35:47.238Z,40.65
2023-02-28T14:38:22.334Z,40.52
2023-02-28T14:40:52.038Z,40.63
2023-02-28T14:43:27.039Z,40.93
2023-02-28T14:46:02.918Z,40.26
2023-02-28T14:48:29.700Z,40.64
2023-02-28T14:51:01.629Z,40.76
2023-02-28T14:53:37.303Z,40.88
2023-02-28T14:56:04.678Z,41.10
2023-02-28T14:58:35.182Z,40.61
2023-02-28T15:01:04.930Z,40.70
2023-02-28T15:03:34.591Z,40.71
2023-02-28T15:06:18.797Z,40.80
2023-02-28T15:08:46.277Z,40.78
2023-02-28T15:11:20.374Z,42.51
2023-02-28T15:13:52.739Z,41.84
2023-02-28T15:16:26.060Z,40.95
2023-02-28T15:19:00.167Z,40.90
2023-02-28T15:21:34.877Z,40.84
2023-02-28T15:24:13.613Z,41.04
2023-02-28T15:26:44.578Z,40.86
2023-02-28T15:29:18.072Z,41.00
2023-02-28T15:31:57.562Z,41.10
2023-02-28T15:34:36.937Z,41.46
2023-02-28T15:37:27.514Z,40.94
2023-02-28T15:39:55.610Z,41.32
2023-02-28T15:42:24.197Z,41.19
2023-02-28T15:44:50.740Z,41.47
2023-02-28T15:47:21.525Z,41.26
2023-02-28T15:49:59.786Z,41.34
2023-02-28T15:52:35.815Z,41.41
2023-02-28T15:55:20.649Z,41.48
2023-02-28T15:57:51.406Z,40.99
2023-02-28T16:00:23.298Z,41.17
2023-02-28T16:02:53.209Z,41.31
2023-02-28T16:05:29.052Z,41.41
2023-02-28T16:07:58.114Z,41.28
2023-02-28T16:10:27.169Z,41.59
2023-02-28T16:12:56.155Z,41.45
2023-02-28T16:15:31.953Z,41.29
2023-02-28T16:17:59.104Z,41.67
2023-02-28T16:20:31.682Z,41.18
2023-02-28T16:23:02.382Z,41.69
2023-02-28T16:25:36.544Z,41.37
2023-02-28T16:28:03.778Z,41.73
2023-02-28T16:30:34.012Z,41.73
2023-02-28T16:33:01.033Z,42.08
2023-02-28T16:35:27.641Z,42.45
2023-02-28T16:37:55.161Z,42.14
2023-02-28T16:40:26.367Z,42.27
2023-02-28T16:42:58.626Z,42.59
2023-02-28T16:45:29.534Z,42.76
2023-02-28T16:47:57.184Z,43.06
2023-02-28T16:50:26.767Z,43.01
2023-02-28T16:52:53.629Z,43.23
2023-02-28T16:55:20.245Z,43.74
2023-02-28T16:57:52.956Z,43.77
2023-02-28T17:00:19.968Z,44.15
2023-02-28T17:02:46.765Z,44.78
2023-02-28T17:05:13.874Z,44.73
2023-02-28T17:07:40.876Z,45.12
2023-02-28T17:10:17.229Z,44.77
2023-02-28T17:12:44.351Z,45.05
2023-02-28T17:15:13.220Z,45.68
2023-02-28T17:17:39.910Z,45.70
2023-02-28T17:20:07.604Z,45.39
2023-02-28T17:22:34.535Z,46.12
2023-02-28T17:25:01.019Z,46.03
2023-02-28T17:27:27.670Z,45.99
2023-02-28T17:29:54.190Z,45.97
2023-02-28T17:32:20.817Z,46.23
2023-02-28T17:34:47.413Z,46.22
2023-02-28T17:37:14.210Z,46.32
2023-02-28T17:39:40.789Z,46.88
2023-02-28T17:42:07.331Z,46.84
2023-02-28T17:44:33.948Z,47.55
2023-02-28T17:47:00.708Z,47.55
2023-02-28T17:49:28.259Z,47.32
2023-02-28T17:51:54.782Z,47.75
2023-02-28T17:54:21.325Z,48.09
2023-02-28T17:56:47.904Z,48.25
2023-02-28T17:59:14.462Z,48.18
2023-02-28T18:01:41.089Z,47.98
2023-02-28T18:04:07.785Z,48.28
2023-02-28T18:06:48.355Z,48.15
2023-02-28T18:09:19.861Z,46.43
2023-02-28T18:11:46.447Z,46.34
2023-02-28T18:14:13.180Z,46.72
2023-02-28T18:16:39.786Z,47.57
2023-02-28T18:19:07.136Z,47.75
2023-02-28T18:21:33.676Z,47.58
2023-02-28T18:24:00.186Z,47.22
2023-02-28T18:26:26.763Z,47.33
2023-02-28T18:28:53.437Z,47.53
2023-02-28T18:31:20.709Z,47.62
2023-02-28T18:33:52.100Z,48.24
2023-02-28T18:36:21.015Z,48.55
2023-02-28T18:38:53.948Z,48.52
2023-02-28T18:41:21.781Z,48.70
2023-02-28T18:43:50.965Z,49.11
2023-02-28T18:46:19.717Z,48.51
2023-02-28T18:48:46.389Z,48.26
2023-02-28T18:51:16.546Z,47.76
2023-02-28T18:53:44.204Z,47.79
2023-02-28T18:56:13.804Z,47.73
2023-02-28T18:58:41.068Z,48.25
2023-02-28T19:01:21.478Z,48.10
2023-02-28T19:03:50.204Z,48.56
2023-02-28T19:06:17.774Z,49.07
2023-02-28T19:08:44.524Z,49.16
2023-02-28T19:11:16.261Z,49.36
2023-02-28T19:13:43.866Z,48.79
2023-02-28T19:16:11.520Z,49.30
2023-02-28T19:18:38.211Z,49.17
2023-02-28T19:21:08.117Z,48.41
2023-02-28T19:23:34.860Z,48.85
2023-02-28T19:26:06.388Z,48.70
2023-02-28T19:28:32.889Z,49.28
2023-02-28T19:30:59.427Z,49.88
2023-02-28T19:33:26.112Z,49.87
2023-02-28T19:35:52.773Z,49.78
2023-02-28T19:38:19.513Z,50.05
2023-02-28T19:40:46.479Z,50.07
2023-02-28T19:43:13.068Z,50.35
2023-02-28T19:45:39.781Z,50.79
2023-02-28T19:48:06.419Z,50.77
2023-02-28T19:50:33.014Z,50.90
2023-02-28T19:53:01.296Z,51.73
2023-02-28T19:55:31.117Z,52.08
2023-02-28T19:57:57.669Z,51.78
2023-02-28T20:00:24.319Z,52.03
2023-02-28T20:02:50.823Z,52.19
2023-02-28T20:05:17.434Z,51.91
2023-02-28T20:07:44.131Z,52.46
2023-02-28T20:10:11.380Z,52.78
2023-02-28T20:12:38.147Z,53.23
2023-02-28T20:15:05.310Z,53.67
2023-02-28T20:17:31.980Z,53.50
2023-02-28T20:19:58.584Z,54.46
2023-02-28T20:22:25.169Z,54.77
2023-02-28T20:24:51.829Z,54.88
2023-02-28T20:27:18.474Z,54.37
2023-02-28T20:29:45.013Z,55.28
2023-02-28T20:32:13.175Z,54.51
2023-02-28T20:34:39.893Z,55.12
2023-02-28T20:37:06.393Z,55.24
2023-02-28T20:39:33.098Z,55.50
2023-02-28T20:41:59.615Z,56.24
2023-02-28T20:44:26.286Z,56.43
2023-02-28T20:46:52.786Z,56.17
2023-02-28T20:49:19.467Z,56.39
2023-02-28T20:51:46.054Z,56.17
2023-02-28T20:54:12.682Z,56.17
2023-02-28T20:56:39.502Z,56.05
2023-02-28T20:59:06.096Z,56.58
2023-02-28T21:01:33.283Z,56.59
2023-02-28T21:04:02.858Z,57.05
2023-02-28T21:06:33.225Z,56.70
2023-02-28T21:09:00.432Z,56.31
2023-02-28T21:11:32.030Z,56.67
2023-02-28T21:14:00.728Z,56.89
2023-02-28T21:16:29.574Z,56.74
2023-02-28T21:19:04.099Z,56.99
2023-02-28T21:21:38.425Z,56.75
2023-02-28T21:24:06.410Z,57.19
2023-02-28T21:26:33.602Z,57.00
2023-02-28T21:29:02.123Z,57.38
2023-02-28T21:31:31.411Z,58.07
2023-02-28T21:33:59.579Z,57.96
2023-02-28T21:36:33.176Z,57.89
2023-02-28T21:39:05.609Z,57.37
2023-02-28T21:41:32.157Z,58.71
2023-02-28T21:43:58.795Z,58.49
2023-02-28T21:46:28.913Z,58.95
2023-02-28T21:48:56.515Z,58.97
2023-02-28T21:51:31.186Z,58.31
2023-02-28T21:53:59.561Z,58.70
2023-02-28T21:56:28.936Z,58.18
2023-02-28T21:59:01.532Z,59.30
2023-02-28T22:01:35.313Z,59.08
2023-02-28T22:04:04.161Z,59.33
2023-02-28T22:06:36.011Z,59.91
2023-02-28T22:09:06.122Z,59.43
2023-02-28T22:11:33.928Z,60.08
2023-02-28T22:14:00.818Z,59.90
2023-02-28T22:16:33.096Z,60.17
2023-02-28T22:19:06.436Z,59.91
2023-02-28T22:21:36.415Z,59.63
2023-02-28T22:24:04.570Z,60.29
2023-02-28T22:26:31.820Z,60.57
2023-02-28T22:28:58.821Z,60.67
2023-02-28T22:31:34.120Z,60.79
2023-02-28T22:34:06.004Z,61.22
2023-02-28T22:36:33.159Z,60.83
2023-02-28T22:39:01.077Z,61.71
2023-02-28T22:41:28.997Z,61.62
2023-02-28T22:43:58.591Z,62.38
2023-02-28T22:46:26.686Z,62.08
2023-02-28T22:48:53.924Z,62.45
2023-02-28T22:51:24.044Z,62.59
2023-02-28T22:53:52.189Z,62.57
2023-02-28T22:56:20.895Z,62.93
2023-02-28T22:58:52.002Z,62.70
2023-02-28T23:01:20.706Z,63.02
2023-02-28T23:03:47.446Z,63.48
2023-02-28T23:06:33.288Z,63.14
2023-02-28T23:09:04.681Z,62.81
2023-02-28T23:11:34.202Z,63.80
2023-02-28T23:14:00.937Z,63.71
2023-02-28T23:16:36.373Z,63.32
2023-02-28T23:19:05.653Z,63.84
2023-02-28T23:21:33.327Z,62.77
2023-02-28T23:24:02.748Z,63.10
2023-02-28T23:26:31.249Z,63.06
2023-02-28T23:28:59.199Z,62.02
2023-02-28T23:31:25.942Z,62.20
2023-02-28T23:33:52.797Z,62.01
2023-02-28T23:36:19.558Z,61.98
2023-02-28T23:38:49.194Z,62.54
2023-02-28T23:41:16.392Z,61.32
2023-02-28T23:43:43.854Z,62.22
2023-02-28T23:46:13.757Z,62.56
2023-02-28T23:48:42.185Z,62.32
2023-02-28T23:51:14.796Z,62.58
2023-02-28T23:53:44.351Z,61.75
2023-02-28T23:56:14.806Z,62.97
2023-02-28T23:58:42.934Z,62.59
